Time;durP1;ratioP1;P1;durP2;ratioP2;P2;SDS_P1;SDS_P2;PMS_P1;PMS_P2;Temp;Humidity;BMP_temperature;BMP_pressure;BME280_temperature;BME280_humidity;BME280_pressure;Samples;Min_cycle;Max_cycle;Signal;HPM_P1;HPM_P2
2021/09/07 00:00:58;;;;;;;10.60;7.33;;;13.30;99.90;;;;;;5080970;28;20211;-78
2021/09/07 00:03:23;;;;;;;13.60;8.63;;;13.30;99.90;;;;;;5081660;28;20631;-78
2021/09/07 00:05:49;;;;;;;10.07;7.50;;;13.20;99.90;;;;;;5080992;28;20665;-78
2021/09/07 00:08:15;;;;;;;9.77;7.63;;;13.20;99.90;;;;;;5079660;28;20185;-78
2021/09/07 00:10:40;;;;;;;10.70;7.67;;;13.20;99.90;;;;;;5077798;28;20605;-78
2021/09/07 00:13:06;;;;;;;11.53;8.80;;;13.20;99.90;;;;;;5077482;28;20213;-78
2021/09/07 00:15:32;;;;;;;13.70;9.20;;;13.20;99.90;;;;;;5075995;28;20179;-78
2021/09/07 00:17:58;;;;;;;13.33;9.33;;;13.30;99.90;;;;;;5081555;28;20444;-78
2021/09/07 00:20:23;;;;;;;11.43;8.87;;;13.30;99.90;;;;;;5076696;28;20209;-78
2021/09/07 00:22:50;;;;;;;11.50;7.83;;;13.30;99.90;;;;;;5075468;28;20181;-78
2021/09/07 00:25:16;;;;;;;12.27;8.37;;;13.30;99.90;;;;;;5079924;28;20668;-78
2021/09/07 00:27:41;;;;;;;10.87;7.90;;;13.30;99.90;;;;;;5081243;28;20512;-78
2021/09/07 00:30:08;;;;;;;10.87;7.50;;;13.40;99.90;;;;;;5044756;28;20529;-78
2021/09/07 00:32:34;;;;;;;15.03;8.77;;;13.30;99.90;;;;;;5078039;28;20238;-78
2021/09/07 00:34:59;;;;;;;9.83;7.53;;;13.30;99.90;;;;;;5076450;28;20433;-78
2021/09/07 00:37:25;;;;;;;10.13;7.80;;;13.30;99.90;;;;;;5079132;28;20574;-78
2021/09/07 00:39:51;;;;;;;11.53;8.27;;;13.30;99.90;;;;;;5078614;28;20180;-78
2021/09/07 00:42:16;;;;;;;9.77;7.43;;;13.30;99.90;;;;;;5081334;28;20521;-78
2021/09/07 00:44:42;;;;;;;9.43;7.13;;;13.30;99.90;;;;;;5079633;28;20180;-78
2021/09/07 00:47:08;;;;;;;9.73;7.30;;;13.40;99.90;;;;;;5080084;28;20550;-78
2021/09/07 00:49:35;;;;;;;11.17;8.20;;;13.40;99.90;;;;;;5079558;28;20173;-78
2021/09/07 00:52:03;;;;;;;10.33;7.20;;;13.40;99.90;;;;;;5082394;28;20415;-78
2021/09/07 00:54:32;;;;;;;11.30;8.60;;;13.40;99.90;;;;;;5079351;28;20472;-78
2021/09/07 00:56:58;;;;;;;11.60;8.30;;;13.40;99.90;;;;;;5080413;28;20434;-78
2021/09/07 00:59:24;;;;;;;12.07;9.00;;;13.40;99.90;;;;;;5078069;28;20445;-78
2021/09/07 01:01:50;;;;;;;10.47;8.10;;;13.30;99.90;;;;;;5079367;28;20536;-78
2021/09/07 01:04:17;;;;;;;12.40;8.10;;;13.30;99.90;;;;;;5079464;28;20208;-78
2021/09/07 01:06:43;;;;;;;12.93;8.37;;;13.30;99.90;;;;;;5080373;28;20513;-78
2021/09/07 01:09:09;;;;;;;14.00;8.20;;;13.40;99.90;;;;;;5079142;28;20513;-78
2021/09/07 01:11:35;;;;;;;14.20;8.40;;;13.40;99.90;;;;;;5082095;28;20179;-78
2021/09/07 01:14:01;;;;;;;9.63;8.70;;;13.40;99.90;;;;;;5076954;28;20975;-78
2021/09/07 01:16:27;;;;;;;10.10;8.20;;;13.40;99.90;;;;;;5081389;28;20477;-78
2021/09/07 01:18:53;;;;;;;9.37;7.70;;;13.40;99.90;;;;;;5074883;28;20470;-78
2021/09/07 01:21:19;;;;;;;10.70;8.20;;;13.40;99.90;;;;;;5062337;28;20469;-78
2021/09/07 01:23:46;;;;;;;10.33;7.50;;;13.50;99.90;;;;;;5075847;28;20228;-78
2021/09/07 01:26:16;;;;;;;12.40;8.00;;;13.40;99.90;;;;;;5080550;28;20425;-78
2021/09/07 01:28:43;;;;;;;11.17;8.73;;;13.50;99.90;;;;;;5079743;28;20966;-78
2021/09/07 01:31:10;;;;;;;10.57;8.30;;;13.40;99.90;;;;;;5081474;28;20990;-78
2021/09/07 01:33:36;;;;;;;11.40;8.77;;;13.40;99.90;;;;;;5075828;28;20431;-78
2021/09/07 01:36:02;;;;;;;9.00;7.60;;;13.40;99.90;;;;;;5080709;28;20433;-78
2021/09/07 01:38:29;;;;;;;12.87;7.97;;;13.40;99.90;;;;;;5076901;28;20520;-78
2021/09/07 01:40:56;;;;;;;10.93;7.60;;;13.30;99.90;;;;;;5059657;28;20955;-78
2021/09/07 01:43:22;;;;;;;10.20;8.00;;;13.30;99.90;;;;;;5060253;28;20492;-78
2021/09/07 01:45:49;;;;;;;10.50;7.60;;;13.30;99.90;;;;;;5078316;28;20430;-78
2021/09/07 01:48:17;;;;;;;11.53;9.50;;;13.30;99.90;;;;;;5060670;28;20462;-78
2021/09/07 01:50:44;;;;;;;11.73;8.60;;;13.30;99.90;;;;;;5076577;28;20452;-78
2021/09/07 01:53:09;;;;;;;11.67;8.80;;;13.30;99.90;;;;;;5078043;28;20430;-78
2021/09/07 01:55:35;;;;;;;10.90;8.30;;;13.30;99.90;;;;;;5078403;28;20431;-78
2021/09/07 01:58:02;;;;;;;9.07;8.20;;;13.30;99.90;;;;;;5078253;28;20822;-78
2021/09/07 02:00:28;;;;;;;12.33;9.17;;;13.20;99.90;;;;;;5077344;28;20259;-78
2021/09/07 02:02:53;;;;;;;8.70;7.27;;;13.20;99.90;;;;;;5080405;28;20962;-78
2021/09/07 02:05:19;;;;;;;13.40;9.30;;;13.20;99.90;;;;;;5074720;28;20180;-78
2021/09/07 02:07:45;;;;;;;10.60;7.57;;;13.10;99.90;;;;;;5078652;28;20259;-78
2021/09/07 02:10:11;;;;;;;9.57;8.00;;;13.10;99.90;;;;;;5077279;28;20430;-78
2021/09/07 02:12:37;;;;;;;11.47;8.50;;;13.10;99.90;;;;;;5078275;28;20437;-78
2021/09/07 02:15:04;;;;;;;12.77;8.10;;;13.10;99.90;;;;;;5077802;28;20441;-78
2021/09/07 02:17:30;;;;;;;10.07;7.37;;;13.10;99.90;;;;;;5076730;28;20427;-78
2021/09/07 02:19:56;;;;;;;11.77;7.53;;;13.10;99.90;;;;;;5076628;28;20444;-78
2021/09/07 02:22:22;;;;;;;11.10;8.23;;;13.10;99.90;;;;;;5077120;28;20197;-78
2021/09/07 02:24:48;;;;;;;8.80;7.83;;;13.10;99.90;;;;;;5076616;28;20685;-78
2021/09/07 02:27:14;;;;;;;18.97;8.70;;;13.00;99.90;;;;;;5078704;28;20427;-78
2021/09/07 02:29:40;;;;;;;9.63;8.07;;;13.00;99.90;;;;;;5077278;28;20437;-78
2021/09/07 02:32:09;;;;;;;11.57;9.10;;;13.00;99.90;;;;;;5078685;28;20180;-78
2021/09/07 02:34:35;;;;;;;13.93;8.37;;;13.00;99.90;;;;;;5076309;28;20975;-78
2021/09/07 02:37:01;;;;;;;10.83;8.17;;;12.90;99.90;;;;;;5078392;28;20503;-78
2021/09/07 02:39:27;;;;;;;9.67;7.73;;;12.90;99.90;;;;;;5075327;28;20215;-78
2021/09/07 02:41:52;;;;;;;12.30;9.00;;;12.90;99.90;;;;;;5080204;28;20203;-78
2021/09/07 02:44:18;;;;;;;9.47;7.63;;;12.90;99.90;;;;;;5078879;28;20178;-78
2021/09/07 02:46:45;;;;;;;11.53;8.77;;;12.90;99.90;;;;;;5061451;28;20168;-78
2021/09/07 02:49:11;;;;;;;12.53;9.13;;;12.80;99.90;;;;;;5078044;28;20184;-78
2021/09/07 02:51:37;;;;;;;11.03;8.60;;;12.80;99.90;;;;;;5078779;28;20506;-78
2021/09/07 02:54:03;;;;;;;13.27;9.40;;;12.80;99.90;;;;;;5079345;28;20461;-78
2021/09/07 02:56:28;;;;;;;12.70;8.90;;;12.70;99.90;;;;;;5078014;28;20195;-78
2021/09/07 02:58:54;;;;;;;12.77;7.67;;;12.70;99.90;;;;;;5079661;28;20509;-78
2021/09/07 03:01:20;;;;;;;10.43;8.50;;;12.60;99.90;;;;;;5063084;28;20766;-78
2021/09/07 03:03:45;;;;;;;10.10;8.33;;;12.60;99.90;;;;;;5081153;28;20190;-78
2021/09/07 03:06:11;;;;;;;12.77;9.40;;;12.60;99.90;;;;;;5083932;28;20184;-78
2021/09/07 03:08:37;;;;;;;11.13;8.70;;;12.60;99.90;;;;;;5081401;28;20268;-78
2021/09/07 03:11:02;;;;;;;10.53;7.50;;;12.50;99.90;;;;;;5082319;28;20618;-78
2021/09/07 03:13:28;;;;;;;14.63;9.57;;;12.50;99.90;;;;;;5066165;28;20246;-78
2021/09/07 03:15:54;;;;;;;12.50;8.60;;;12.50;99.90;;;;;;5079288;28;20208;-78
2021/09/07 03:18:19;;;;;;;13.70;8.83;;;12.50;99.90;;;;;;5062890;28;20212;-78
2021/09/07 03:20:46;;;;;;;14.17;7.80;;;12.40;99.90;;;;;;5080904;28;20283;-78
2021/09/07 03:23:11;;;;;;;8.73;7.50;;;12.40;99.90;;;;;;5082569;28;20168;-78
2021/09/07 03:25:37;;;;;;;11.30;9.40;;;12.30;99.90;;;;;;5080670;28;20766;-78
2021/09/07 03:28:03;;;;;;;9.90;7.87;;;12.20;99.90;;;;;;5082874;28;20639;-78
2021/09/07 03:30:29;;;;;;;10.47;8.63;;;12.20;99.90;;;;;;5080493;28;20633;-78
2021/09/07 03:32:54;;;;;;;11.33;9.70;;;12.20;99.90;;;;;;5078730;28;20422;-78
2021/09/07 03:35:20;;;;;;;12.93;10.53;;;12.30;99.90;;;;;;5079806;28;20667;-78
2021/09/07 03:37:46;;;;;;;10.70;8.80;;;12.20;99.90;;;;;;5084061;28;20636;-78
2021/09/07 03:40:13;;;;;;;14.93;8.83;;;12.20;99.90;;;;;;5081577;28;20283;-78
2021/09/07 03:42:40;;;;;;;10.43;8.40;;;12.20;99.90;;;;;;5079501;28;20719;-78
2021/09/07 03:45:08;;;;;;;11.27;8.87;;;12.20;99.90;;;;;;5081490;28;20768;-78
2021/09/07 03:47:34;;;;;;;12.60;8.40;;;12.20;99.90;;;;;;5063835;28;20427;-78
2021/09/07 03:50:00;;;;;;;12.43;8.70;;;12.20;99.90;;;;;;5059108;28;20427;-78
2021/09/07 03:52:26;;;;;;;12.43;9.10;;;12.20;99.90;;;;;;5082665;28;20517;-78
2021/09/07 03:54:52;;;;;;;10.77;9.20;;;12.20;99.90;;;;;;5047214;28;20550;-78
2021/09/07 03:57:17;;;;;;;13.97;9.50;;;12.20;99.90;;;;;;5081583;28;20176;-78
2021/09/07 03:59:43;;;;;;;16.07;9.43;;;12.20;99.90;;;;;;5078639;28;20279;-78
2021/09/07 04:02:08;;;;;;;12.60;9.20;;;12.20;99.90;;;;;;5081803;28;20655;-78
2021/09/07 04:04:34;;;;;;;13.50;8.87;;;12.20;99.90;;;;;;5078987;28;20533;-78
2021/09/07 04:07:00;;;;;;;15.23;10.20;;;12.20;99.90;;;;;;5080719;28;20180;-78
2021/09/07 04:09:25;;;;;;;10.60;8.50;;;12.10;99.90;;;;;;5063980;28;20169;-78
2021/09/07 04:11:51;;;;;;;15.90;10.07;;;12.10;99.90;;;;;;5081108;28;20238;-78
2021/09/07 04:14:18;;;;;;;13.20;9.43;;;12.10;99.90;;;;;;5080383;28;20199;-78
2021/09/07 04:16:44;;;;;;;13.43;9.47;;;12.10;99.90;;;;;;5081439;28;20513;-78
2021/09/07 04:19:10;;;;;;;12.63;8.80;;;12.00;99.90;;;;;;5077628;28;20438;-78
2021/09/07 04:21:36;;;;;;;14.87;9.17;;;12.00;99.90;;;;;;5079340;28;20455;-78
2021/09/07 04:24:04;;;;;;;13.50;9.00;;;12.00;99.90;;;;;;5078785;28;20442;-78
2021/09/07 04:26:30;;;;;;;10.50;8.17;;;11.90;99.90;;;;;;5081214;28;20890;-78
2021/09/07 04:28:57;;;;;;;10.77;8.03;;;11.80;99.90;;;;;;5077479;28;20779;-78
2021/09/07 04:31:22;;;;;;;12.87;9.23;;;11.80;99.90;;;;;;5080079;28;20873;-78
2021/09/07 04:33:48;;;;;;;14.07;10.20;;;11.80;99.90;;;;;;5077726;28;20430;-78
2021/09/07 04:36:14;;;;;;;15.40;9.10;;;11.70;99.90;;;;;;5075767;28;20176;-78
2021/09/07 04:38:39;;;;;;;11.37;9.30;;;11.70;99.90;;;;;;5076055;28;20240;-78
2021/09/07 04:41:05;;;;;;;15.47;10.17;;;11.70;99.90;;;;;;5071209;28;20195;-78
2021/09/07 04:43:31;;;;;;;13.47;9.40;;;11.70;99.90;;;;;;5049462;28;20514;-78
2021/09/07 04:45:56;;;;;;;18.53;10.43;;;11.70;99.90;;;;;;5077933;28;20259;-78
2021/09/07 04:48:22;;;;;;;16.10;10.10;;;11.60;99.90;;;;;;5078789;28;20176;-78
2021/09/07 04:50:48;;;;;;;16.27;10.37;;;11.60;99.90;;;;;;5063905;28;20176;-78
2021/09/07 04:53:13;;;;;;;15.27;11.20;;;11.60;99.90;;;;;;5073449;28;20613;-77
2021/09/07 04:55:39;;;;;;;20.13;12.40;;;11.60;99.90;;;;;;5072115;28;20208;-78
2021/09/07 04:58:05;;;;;;;19.37;11.60;;;11.60;99.90;;;;;;5081236;28;20279;-78
2021/09/07 05:00:30;;;;;;;23.60;14.30;;;11.60;99.90;;;;;;5074196;28;20515;-78
2021/09/07 05:02:56;;;;;;;22.73;14.60;;;11.50;99.90;;;;;;5074456;28;20208;-78
2021/09/07 05:05:22;;;;;;;25.27;14.00;;;11.50;99.90;;;;;;5075618;28;20577;-78
2021/09/07 05:07:47;;;;;;;24.50;14.97;;;11.50;99.90;;;;;;5078262;28;20734;-78
2021/09/07 05:10:13;;;;;;;21.93;16.27;;;11.50;99.90;;;;;;5075291;28;20173;-78
2021/09/07 05:12:39;;;;;;;20.10;13.33;;;11.50;99.90;;;;;;5078247;28;20180;-78
2021/09/07 05:15:06;;;;;;;20.70;13.57;;;11.50;99.90;;;;;;5073686;28;20176;-78
2021/09/07 05:17:32;;;;;;;22.37;13.33;;;11.50;99.90;;;;;;5076397;28;20180;-78
2021/09/07 05:19:57;;;;;;;22.37;13.53;;;11.60;99.90;;;;;;5073818;28;20780;-78
2021/09/07 05:22:23;;;;;;;23.10;13.27;;;11.60;99.90;;;;;;5074599;28;20200;-78
2021/09/07 05:24:49;;;;;;;19.53;13.17;;;11.60;99.90;;;;;;5079381;28;20176;-78
2021/09/07 05:27:14;;;;;;;22.03;12.77;;;11.60;99.90;;;;;;5075292;28;20188;-78
2021/09/07 05:29:40;;;;;;;29.33;14.10;;;11.60;99.90;;;;;;5065942;28;20196;-77
2021/09/07 05:32:06;;;;;;;21.87;14.60;;;11.60;99.90;;;;;;5071577;28;20199;-77
2021/09/07 05:34:32;;;;;;;20.87;12.70;;;11.60;99.90;;;;;;5075250;28;20177;-77
2021/09/07 05:36:57;;;;;;;19.23;13.33;;;11.60;99.90;;;;;;5070391;28;20438;-77
2021/09/07 05:39:24;;;;;;;24.80;13.80;;;11.60;99.90;;;;;;5064538;28;20630;-78
2021/09/07 05:41:52;;;;;;;24.33;13.40;;;11.50;99.90;;;;;;5075421;28;20218;-77
2021/09/07 05:44:19;;;;;;;24.50;14.60;;;11.50;99.90;;;;;;5072133;28;20434;-77
2021/09/07 05:46:44;;;;;;;22.70;13.50;;;11.60;99.90;;;;;;5078436;28;20429;-78
2021/09/07 05:49:10;;;;;;;24.00;15.00;;;11.60;99.90;;;;;;5065859;28;20429;-77
2021/09/07 05:51:35;;;;;;;27.10;15.17;;;11.70;99.90;;;;;;5063791;28;20184;-77
2021/09/07 05:54:01;;;;;;;20.07;14.13;;;11.70;99.90;;;;;;5080135;28;20180;-77
2021/09/07 05:56:28;;;;;;;22.70;15.17;;;11.70;99.90;;;;;;5082348;28;20301;-77
2021/09/07 05:58:54;;;;;;;22.27;15.87;;;11.80;99.90;;;;;;5079154;28;20194;-77
2021/09/07 06:01:20;;;;;;;21.27;15.70;;;11.80;99.90;;;;;;5081704;28;20551;-78
2021/09/07 06:03:46;;;;;;;22.67;15.80;;;11.90;99.90;;;;;;5080622;28;20447;-78
2021/09/07 06:06:11;;;;;;;30.00;17.50;;;12.00;99.90;;;;;;5081408;28;20172;-77
2021/09/07 06:08:37;;;;;;;29.37;18.57;;;12.00;99.90;;;;;;5079649;28;20176;-77
2021/09/07 06:11:04;;;;;;;26.70;17.03;;;12.10;99.90;;;;;;5079170;28;20207;-77
2021/09/07 06:13:31;;;;;;;28.03;17.20;;;12.10;99.90;;;;;;5080554;28;21075;-77
2021/09/07 06:15:57;;;;;;;30.60;17.23;;;12.10;99.90;;;;;;5081047;28;20433;-77
2021/09/07 06:18:23;;;;;;;32.53;16.63;;;12.20;99.90;;;;;;5082036;28;20914;-77
2021/09/07 06:20:49;;;;;;;25.97;15.43;;;12.20;99.90;;;;;;5059542;28;20211;-77
2021/09/07 06:23:14;;;;;;;35.70;18.30;;;12.30;99.90;;;;;;5069244;28;21901;-77
2021/09/07 06:25:40;;;;;;;26.60;17.57;;;12.40;99.90;;;;;;5067723;28;20203;-77
2021/09/07 06:28:06;;;;;;;25.50;16.13;;;12.50;99.90;;;;;;5072643;28;20234;-77
2021/09/07 06:30:31;;;;;;;25.83;17.53;;;12.60;99.90;;;;;;5054391;28;20235;-77
2021/09/07 06:32:57;;;;;;;23.13;15.33;;;12.70;99.90;;;;;;5079012;28;20287;-78
2021/09/07 06:35:24;;;;;;;23.10;16.37;;;12.80;99.90;;;;;;5079435;28;20185;-78
2021/09/07 06:37:49;;;;;;;19.73;15.60;;;12.90;99.90;;;;;;5079137;28;20178;-78
2021/09/07 06:40:15;;;;;;;24.17;14.60;;;13.00;99.90;;;;;;5079898;28;20425;-77
2021/09/07 06:42:41;;;;;;;21.30;13.77;;;13.10;99.90;;;;;;5082352;28;20625;-77
2021/09/07 06:45:07;;;;;;;21.37;16.17;;;13.20;99.90;;;;;;5078980;28;20431;-77
2021/09/07 06:47:33;;;;;;;20.23;16.03;;;13.20;99.90;;;;;;5081647;28;20286;-77
2021/09/07 06:50:02;;;;;;;26.93;16.43;;;13.20;99.90;;;;;;5079995;28;20891;-77
2021/09/07 06:52:31;;;;;;;20.97;15.70;;;13.40;99.90;;;;;;5082613;28;20176;-78
2021/09/07 06:54:57;;;;;;;25.73;16.73;;;13.40;99.90;;;;;;5079870;28;20520;-77
2021/09/07 06:57:23;;;;;;;20.90;15.33;;;13.50;99.90;;;;;;5081745;28;20427;-77
2021/09/07 06:59:49;;;;;;;24.60;17.47;;;13.50;99.90;;;;;;5079026;28;21427;-77
2021/09/07 07:02:14;;;;;;;17.50;14.57;;;13.70;99.90;;;;;;5080088;28;20204;-77
2021/09/07 07:04:40;;;;;;;26.53;16.67;;;13.80;99.90;;;;;;5082004;28;20172;-77
2021/09/07 07:07:05;;;;;;;23.67;16.77;;;13.80;99.90;;;;;;5078920;28;20669;-77
2021/09/07 07:09:31;;;;;;;23.27;16.07;;;13.90;99.90;;;;;;5080762;28;20181;-77
2021/09/07 07:11:57;;;;;;;19.07;14.83;;;14.00;99.90;;;;;;5080055;28;20180;-77
2021/09/07 07:14:22;;;;;;;18.83;12.03;;;14.10;99.90;;;;;;5079048;28;20271;-77
2021/09/07 07:16:49;;;;;;;14.87;11.60;;;14.20;99.90;;;;;;5080667;28;20191;-77
2021/09/07 07:19:15;;;;;;;17.00;11.03;;;14.20;99.90;;;;;;5077081;28;20196;-77
2021/09/07 07:21:41;;;;;;;16.87;11.87;;;14.30;99.90;;;;;;5077620;28;20469;-78
2021/09/07 07:24:07;;;;;;;12.50;9.00;;;14.40;99.90;;;;;;5079415;28;21171;-77
2021/09/07 07:26:32;;;;;;;12.70;9.57;;;14.50;99.90;;;;;;5080623;28;20774;-77
2021/09/07 07:28:58;;;;;;;12.83;9.10;;;14.60;99.90;;;;;;5074704;28;20192;-77
2021/09/07 07:31:24;;;;;;;12.03;8.90;;;14.70;99.90;;;;;;5076045;28;20173;-77
2021/09/07 07:33:49;;;;;;;12.60;8.97;;;14.80;99.90;;;;;;5079332;28;20179;-77
2021/09/07 07:36:15;;;;;;;14.07;10.20;;;14.90;99.90;;;;;;5075651;28;20184;-78
2021/09/07 07:38:41;;;;;;;14.93;8.50;;;15.00;99.90;;;;;;5077679;28;20176;-77
2021/09/07 07:41:07;;;;;;;14.93;9.27;;;15.20;99.90;;;;;;5076433;28;20505;-77
2021/09/07 07:43:36;;;;;;;10.97;9.87;;;15.30;99.90;;;;;;5080017;28;20175;-78
2021/09/07 07:46:02;;;;;;;11.67;8.63;;;15.40;99.90;;;;;;5081545;28;20172;-78
2021/09/07 07:48:28;;;;;;;8.70;7.80;;;15.50;99.90;;;;;;5083623;28;20426;-78
2021/09/07 07:50:54;;;;;;;13.43;9.50;;;15.60;99.90;;;;;;5082637;28;20439;-78
2021/09/07 07:53:20;;;;;;;14.13;9.40;;;15.60;99.90;;;;;;5082979;28;20610;-78
2021/09/07 07:55:46;;;;;;;9.33;8.07;;;15.70;99.90;;;;;;5083823;28;20225;-78
2021/09/07 07:58:11;;;;;;;10.10;7.60;;;15.80;99.90;;;;;;5084042;28;20421;-78
2021/09/07 08:00:37;;;;;;;15.47;10.70;;;15.80;99.90;;;;;;5083044;28;20558;-78
2021/09/07 08:03:03;;;;;;;10.57;9.47;;;15.90;99.90;;;;;;5082592;28;20241;-78
2021/09/07 08:05:28;;;;;;;12.27;10.53;;;15.90;99.90;;;;;;5082029;28;20829;-78
2021/09/07 08:07:54;;;;;;;12.17;10.30;;;16.10;99.90;;;;;;5083310;28;20176;-78
2021/09/07 08:10:20;;;;;;;13.80;11.23;;;16.10;99.90;;;;;;5081053;28;20176;-78
2021/09/07 08:12:46;;;;;;;15.50;12.30;;;16.30;99.90;;;;;;5082807;28;20645;-78
2021/09/07 08:15:12;;;;;;;10.03;8.50;;;16.40;99.90;;;;;;5082156;28;20187;-78
2021/09/07 08:17:38;;;;;;;12.80;10.87;;;16.40;99.90;;;;;;5080999;28;20625;-78
2021/09/07 08:20:04;;;;;;;11.27;10.10;;;16.50;99.90;;;;;;5080905;28;20430;-78
2021/09/07 08:22:30;;;;;;;10.83;9.73;;;16.60;99.90;;;;;;5063568;28;20458;-78
2021/09/07 08:24:56;;;;;;;8.90;7.70;;;16.60;99.90;;;;;;5083300;28;20444;-78
2021/09/07 08:27:21;;;;;;;8.17;7.30;;;16.50;99.90;;;;;;5082783;28;20274;-78
2021/09/07 08:29:47;;;;;;;15.67;9.80;;;16.50;99.90;;;;;;5081736;28;20259;-78
2021/09/07 08:32:13;;;;;;;8.80;7.67;;;16.50;99.90;;;;;;5083512;28;20172;-78
2021/09/07 08:34:39;;;;;;;11.43;7.80;;;16.60;99.90;;;;;;5082443;28;20188;-78
2021/09/07 08:37:05;;;;;;;10.33;7.50;;;16.70;99.90;;;;;;5082139;28;20436;-78
2021/09/07 08:39:30;;;;;;;9.10;7.23;;;16.80;99.90;;;;;;5079357;28;20219;-78
2021/09/07 08:41:56;;;;;;;9.60;8.20;;;16.80;99.90;;;;;;5082435;28;20450;-78
2021/09/07 08:44:22;;;;;;;8.37;7.43;;;17.00;99.90;;;;;;5082283;28;20179;-78
2021/09/07 08:46:48;;;;;;;14.00;8.67;;;17.20;99.90;;;;;;5083142;28;20250;-78
2021/09/07 08:49:17;;;;;;;9.63;6.53;;;17.30;99.90;;;;;;5081099;28;20512;-78
2021/09/07 08:51:42;;;;;;;9.70;5.97;;;17.30;99.90;;;;;;5082810;28;20275;-78
2021/09/07 08:54:08;;;;;;;8.73;7.80;;;17.40;99.90;;;;;;5082417;28;20529;-78
2021/09/07 08:56:34;;;;;;;8.90;7.27;;;17.50;99.90;;;;;;5082817;28;20240;-78
2021/09/07 08:59:00;;;;;;;8.47;7.10;;;17.60;99.90;;;;;;5080418;28;20443;-78
2021/09/07 09:01:26;;;;;;;13.20;7.57;;;17.80;99.90;;;;;;5082364;28;20811;-78
2021/09/07 09:03:51;;;;;;;5.87;5.27;;;17.90;99.90;;;;;;5064881;28;20259;-78
2021/09/07 09:06:26;;;;;;;7.37;5.87;;;17.90;99.90;;;;;;5081843;28;20505;-78
2021/09/07 09:09:07;;;;;;;8.60;7.00;;;18.00;99.90;;;;;;5081772;28;20617;-78
2021/09/07 09:11:53;;;;;;;7.00;6.30;;;18.10;99.90;;;;;;5081023;28;20426;-78
2021/09/07 09:14:34;;;;;;;4.67;4.27;;;18.20;99.90;;;;;;5081412;28;20472;-78
2021/09/07 09:17:00;;;;;;;4.83;4.43;;;18.30;99.90;;;;;;5081132;28;20841;-78
2021/09/07 09:19:26;;;;;;;6.20;5.37;;;18.30;99.90;;;;;;5075725;28;20497;-78
2021/09/07 09:21:52;;;;;;;6.50;5.90;;;18.30;99.90;;;;;;5064889;28;20513;-79
2021/09/07 09:24:18;;;;;;;5.20;4.80;;;18.40;99.90;;;;;;5079251;28;20172;-78
2021/09/07 09:27:02;;;;;;;5.67;5.07;;;18.50;99.90;;;;;;5079315;28;20458;-78
2021/09/07 09:29:30;;;;;;;6.00;5.20;;;18.70;99.90;;;;;;5078177;28;20438;-78
2021/09/07 09:31:58;;;;;;;7.97;5.10;;;18.80;99.90;;;;;;5076779;28;20534;-78
2021/09/07 09:34:25;;;;;;;5.77;5.00;;;18.90;99.90;;;;;;5074894;28;21030;-78
2021/09/07 09:37:12;;;;;;;5.30;4.87;;;19.10;99.90;;;;;;5079294;28;20754;-78
2021/09/07 09:39:46;;;;;;;5.53;4.93;;;19.30;99.90;;;;;;5078213;28;20433;-77
2021/09/07 09:42:19;;;;;;;5.73;4.97;;;19.40;99.90;;;;;;5078277;28;20446;-77
2021/09/07 09:44:45;;;;;;;3.90;3.60;;;19.50;99.90;;;;;;5076494;28;20426;-79
2021/09/07 09:47:11;;;;;;;5.00;4.50;;;19.70;99.90;;;;;;5059929;28;20910;-79
2021/09/07 09:49:37;;;;;;;7.50;5.23;;;19.90;99.90;;;;;;5063263;28;20180;-79
2021/09/07 09:52:08;;;;;;;5.77;5.17;;;20.10;99.90;;;;;;5076070;28;20492;-78
2021/09/07 09:54:35;;;;;;;5.80;4.83;;;20.10;99.90;;;;;;5073349;28;20759;-78
2021/09/07 09:57:03;;;;;;;4.30;3.90;;;20.20;99.90;;;;;;5076811;28;20507;-79
2021/09/07 09:59:29;;;;;;;5.20;4.70;;;20.30;99.90;;;;;;5069020;28;20941;-79
2021/09/07 10:01:59;;;;;;;7.03;5.73;;;20.50;99.90;;;;;;5073164;28;20457;-79
2021/09/07 10:04:27;;;;;;;6.03;5.47;;;20.50;99.90;;;;;;5076256;28;20172;-79
2021/09/07 10:06:53;;;;;;;5.10;4.60;;;20.60;99.90;;;;;;5075484;28;20503;-79
2021/09/07 10:09:23;;;;;;;7.03;4.60;;;20.80;99.90;;;;;;5077218;28;20438;-79
2021/09/07 10:11:59;;;;;;;5.20;3.57;;;20.80;99.90;;;;;;5080013;28;20505;-79
2021/09/07 10:14:28;;;;;;;27.23;5.43;;;21.00;99.90;;;;;;5058907;28;20521;-78
2021/09/07 10:17:38;;;;;;;5.37;4.87;;;21.10;99.90;;;;;;5073529;28;20441;-78
2021/09/07 10:23:04;;;;;;;5.47;4.97;;;21.30;99.90;;;;;;5081870;28;20510;-78
2021/09/07 10:25:53;;;;;;;3.90;3.37;;;21.50;99.90;;;;;;5082417;28;20422;-78
2021/09/07 10:28:32;;;;;;;3.60;3.30;;;21.80;99.90;;;;;;5078861;28;20425;-80
2021/09/07 10:31:02;;;;;;;4.63;4.23;;;21.80;99.90;;;;;;5061058;28;20434;-78
2021/09/07 10:33:33;;;;;;;4.17;3.70;;;21.80;99.90;;;;;;5082659;28;20429;-78
2021/09/07 10:36:15;;;;;;;3.97;3.67;;;21.90;99.90;;;;;;5083019;28;20417;-78
2021/09/07 10:38:49;;;;;;;4.23;3.87;;;22.10;99.90;;;;;;5076173;28;20430;-78
2021/09/07 10:41:33;;;;;;;3.60;3.40;;;22.20;99.90;;;;;;5076574;28;20449;-78
2021/09/07 10:44:28;;;;;;;3.43;3.13;;;22.20;99.90;;;;;;5077138;28;22076;-78
2021/09/07 10:46:57;;;;;;;3.93;3.13;;;22.40;99.90;;;;;;5083776;28;20410;-79
2021/09/07 10:49:33;;;;;;;3.53;3.33;;;22.50;99.90;;;;;;5083325;28;20436;-79
2021/09/07 10:52:26;;;;;;;3.23;3.03;;;22.60;99.90;;;;;;5079883;28;20424;-79
2021/09/07 10:55:06;;;;;;;4.93;3.20;;;22.80;99.90;;;;;;5077611;28;20484;-79
2021/09/07 10:57:32;;;;;;;3.57;3.27;;;22.70;99.90;;;;;;5078544;28;20516;-80
2021/09/07 11:00:01;;;;;;;3.50;3.20;;;22.60;99.90;;;;;;5077203;28;20811;-79
2021/09/07 11:02:35;;;;;;;3.10;2.90;;;22.60;99.90;;;;;;5077879;28;20212;-79
2021/09/07 11:05:05;;;;;;;3.93;3.30;;;22.50;99.90;;;;;;5072406;28;20423;-78
2021/09/07 11:07:42;;;;;;;3.07;2.87;;;22.40;99.90;;;;;;5079835;28;20427;-78
2021/09/07 11:10:17;;;;;;;4.63;3.00;;;22.40;99.90;;;;;;5073159;28;20505;-78
2021/09/07 11:13:03;;;;;;;4.40;2.97;;;22.60;99.90;;;;;;5078089;28;20516;-78
2021/09/07 11:15:40;;;;;;;3.10;2.80;;;22.70;99.90;;;;;;5075143;28;20439;-78
2021/09/07 11:18:14;;;;;;;3.23;3.00;;;22.70;99.90;;;;;;5074794;28;20456;-78
2021/09/07 11:20:45;;;;;;;3.90;2.87;;;22.80;99.90;;;;;;5075220;28;20426;-78
2021/09/07 11:23:13;;;;;;;2.63;2.43;;;22.90;99.90;;;;;;5076455;28;20419;-78
2021/09/07 11:25:41;;;;;;;4.37;3.23;;;22.90;99.90;;;;;;5080818;28;20422;-78
2021/09/07 11:28:09;;;;;;;4.00;3.20;;;23.00;99.90;;;;;;5079226;28;20552;-78
2021/09/07 11:30:51;;;;;;;3.20;3.00;;;22.90;99.90;;;;;;5077563;28;20451;-79
2021/09/07 11:33:21;;;;;;;3.20;3.00;;;23.00;99.90;;;;;;5082707;28;20925;-78
2021/09/07 11:36:05;;;;;;;3.50;3.20;;;22.90;99.90;;;;;;5072590;28;20423;-78
2021/09/07 11:38:36;;;;;;;3.33;3.03;;;22.90;99.90;;;;;;5072523;28;20449;-78
2021/09/07 11:41:05;;;;;;;3.40;3.10;;;23.10;99.90;;;;;;5080569;28;20450;-79
2021/09/07 11:43:36;;;;;;;4.70;3.77;;;23.30;99.90;;;;;;5079069;28;20869;-79
2021/09/07 11:46:20;;;;;;;3.50;3.20;;;23.60;99.90;;;;;;5078383;28;20899;-80
2021/09/07 11:48:51;;;;;;;4.40;3.77;;;23.90;99.90;;;;;;5078960;28;20458;-79
2021/09/07 11:51:24;;;;;;;3.07;2.87;;;23.90;99.90;;;;;;5076991;28;20467;-80
2021/09/07 11:53:54;;;;;;;3.20;2.93;;;23.80;99.90;;;;;;5074444;28;20514;-80
2021/09/07 11:56:26;;;;;;;3.33;3.13;;;24.00;99.90;;;;;;5056518;28;20823;-80
2021/09/07 11:58:52;;;;;;;3.37;3.17;;;24.10;99.90;;;;;;5080262;28;20490;-80
2021/09/07 12:01:22;;;;;;;3.70;3.40;;;24.20;99.90;;;;;;5058793;28;20489;-80
2021/09/07 12:06:53;;;;;;;3.83;3.10;;;24.30;99.90;;;;;;5066428;28;20426;-78
2021/09/07 12:09:30;;;;;;;3.63;3.27;;;24.20;99.90;;;;;;5077217;28;20462;-78
2021/09/07 12:12:12;;;;;;;3.60;3.30;;;24.20;99.90;;;;;;5079922;28;20422;-78
2021/09/07 12:14:39;;;;;;;3.00;2.80;;;24.30;99.90;;;;;;5072714;28;20431;-78
2021/09/07 12:17:12;;;;;;;3.53;3.27;;;24.30;99.90;;;;;;5078050;28;20438;-78
2021/09/07 12:19:44;;;;;;;3.30;3.10;;;24.50;99.90;;;;;;5081797;28;20437;-78
2021/09/07 12:22:20;;;;;;;3.50;2.90;;;24.60;99.90;;;;;;5078970;28;20453;-78
2021/09/07 12:25:07;;;;;;;2.77;2.57;;;24.70;99.90;;;;;;5076083;28;20452;-78
2021/09/07 12:27:38;;;;;;;3.30;3.00;;;24.60;99.90;;;;;;5080836;28;20418;-78
2021/09/07 12:30:20;;;;;;;3.53;3.30;;;24.70;99.90;;;;;;5078128;28;20717;-78
2021/09/07 12:33:00;;;;;;;3.37;2.87;;;24.80;99.90;;;;;;5079098;28;20425;-78
2021/09/07 12:35:32;;;;;;;4.03;3.60;;;24.90;99.90;;;;;;5074810;28;20840;-78
2021/09/07 12:37:59;;;;;;;3.70;3.40;;;25.00;99.90;;;;;;5078428;28;20526;-78
2021/09/07 12:40:25;;;;;;;4.00;3.70;;;24.90;99.90;;;;;;5074010;28;20880;-78
2021/09/07 12:42:51;;;;;;;3.40;3.10;;;25.00;99.90;;;;;;5068303;28;20455;-78
2021/09/07 12:45:16;;;;;;;2.93;2.83;;;25.10;99.90;;;;;;5077631;28;20764;-78
2021/09/07 12:47:42;;;;;;;3.37;3.17;;;25.10;99.90;;;;;;5076878;28;20253;-79